sensor_id;sensor_type;location;lat;lon;timestamp;P1;durP1;ratioP1;P2;durP2;ratioP2
78416;SDS011;67715;46.170;6.140;2023-04-08T00:00:33;3.83;;;2.87;;
78416;SDS011;67715;46.170;6.140;2023-04-08T00:02:58;5.07;;;2.77;;
78416;SDS011;67715;46.170;6.140;2023-04-08T00:05:25;5.20;;;3.35;;
78416;SDS011;67715;46.170;6.140;2023-04-08T00:07:50;5.53;;;2.83;;
78416;SDS011;67715;46.170;6.140;2023-04-08T00:10:15;6.53;;;3.60;;
78416;SDS011;67715;46.170;6.140;2023-04-08T00:12:41;6.25;;;3.53;;
78416;SDS011;67715;46.170;6.140;2023-04-08T00:15:06;5.30;;;3.33;;
78416;SDS011;67715;46.170;6.140;2023-04-08T00:17:31;6.07;;;3.70;;
78416;SDS011;67715;46.170;6.140;2023-04-08T00:19:57;6.23;;;3.20;;
78416;SDS011;67715;46.170;6.140;2023-04-08T00:22:22;6.80;;;4.05;;
78416;SDS011;67715;46.170;6.140;2023-04-08T00:24:47;5.13;;;3.38;;
78416;SDS011;67715;46.170;6.140;2023-04-08T00:27:13;4.57;;;3.33;;
78416;SDS011;67715;46.170;6.140;2023-04-08T00:29:38;5.20;;;3.00;;
78416;SDS011;67715;46.170;6.140;2023-04-08T00:32:03;5.60;;;3.50;;
78416;SDS011;67715;46.170;6.140;2023-04-08T00:34:29;4.97;;;3.33;;
78416;SDS011;67715;46.170;6.140;2023-04-08T00:36:54;7.00;;;3.50;;
78416;SDS011;67715;46.170;6.140;2023-04-08T00:39:20;5.07;;;3.20;;
78416;SDS011;67715;46.170;6.140;2023-04-08T00:41:45;5.63;;;3.03;;
78416;SDS011;67715;46.170;6.140;2023-04-08T00:44:10;5.03;;;3.20;;
78416;SDS011;67715;46.170;6.140;2023-04-08T00:46:37;5.30;;;3.47;;
78416;SDS011;67715;46.170;6.140;2023-04-08T00:49:04;5.35;;;3.35;;
78416;SDS011;67715;46.170;6.140;2023-04-08T00:51:30;5.38;;;3.95;;
78416;SDS011;67715;46.170;6.140;2023-04-08T00:53:56;6.10;;;4.28;;
78416;SDS011;67715;46.170;6.140;2023-04-08T00:56:21;7.47;;;4.60;;
78416;SDS011;67715;46.170;6.140;2023-04-08T00:58:47;6.22;;;4.13;;
78416;SDS011;67715;46.170;6.140;2023-04-08T01:01:22;5.83;;;4.10;;
78416;SDS011;67715;46.170;6.140;2023-04-08T01:08:56;4.70;;;3.38;;
78416;SDS011;67715;46.170;6.140;2023-04-08T01:11:24;7.50;;;4.10;;
78416;SDS011;67715;46.170;6.140;2023-04-08T01:13:50;4.90;;;3.55;;
78416;SDS011;67715;46.170;6.140;2023-04-08T01:16:18;5.05;;;3.63;;
78416;SDS011;67715;46.170;6.140;2023-04-08T01:18:43;7.57;;;4.00;;
78416;SDS011;67715;46.170;6.140;2023-04-08T01:21:10;6.53;;;4.18;;
78416;SDS011;67715;46.170;6.140;2023-04-08T01:26:19;7.70;;;4.10;;
78416;SDS011;67715;46.170;6.140;2023-04-08T01:28:47;5.68;;;3.70;;
78416;SDS011;67715;46.170;6.140;2023-04-08T01:31:13;6.90;;;3.95;;
78416;SDS011;67715;46.170;6.140;2023-04-08T01:33:39;7.00;;;3.88;;
78416;SDS011;67715;46.170;6.140;2023-04-08T01:36:05;8.30;;;3.85;;
78416;SDS011;67715;46.170;6.140;2023-04-08T01:38:31;8.73;;;3.97;;
78416;SDS011;67715;46.170;6.140;2023-04-08T01:40:57;5.43;;;3.08;;
78416;SDS011;67715;46.170;6.140;2023-04-08T01:43:23;5.38;;;3.28;;
78416;SDS011;67715;46.170;6.140;2023-04-08T01:45:48;6.50;;;3.58;;
78416;SDS011;67715;46.170;6.140;2023-04-08T01:48:14;6.57;;;3.55;;
78416;SDS011;67715;46.170;6.140;2023-04-08T01:50:40;5.55;;;3.75;;
78416;SDS011;67715;46.170;6.140;2023-04-08T01:53:07;5.30;;;3.35;;
78416;SDS011;67715;46.170;6.140;2023-04-08T01:55:33;6.13;;;3.70;;
78416;SDS011;67715;46.170;6.140;2023-04-08T01:57:59;5.15;;;3.90;;
78416;SDS011;67715;46.170;6.140;2023-04-08T02:00:27;6.10;;;3.47;;
78416;SDS011;67715;46.170;6.140;2023-04-08T02:02:53;5.63;;;3.40;;
78416;SDS011;67715;46.170;6.140;2023-04-08T02:05:19;6.75;;;4.15;;
78416;SDS011;67715;46.170;6.140;2023-04-08T02:07:46;7.43;;;3.90;;
78416;SDS011;67715;46.170;6.140;2023-04-08T02:10:12;5.65;;;3.25;;
78416;SDS011;67715;46.170;6.140;2023-04-08T02:12:37;7.73;;;3.53;;
78416;SDS011;67715;46.170;6.140;2023-04-08T02:15:03;6.43;;;3.67;;
78416;SDS011;67715;46.170;6.140;2023-04-08T02:17:32;5.93;;;3.78;;
78416;SDS011;67715;46.170;6.140;2023-04-08T02:20:10;6.10;;;4.00;;
78416;SDS011;67715;46.170;6.140;2023-04-08T02:22:49;5.65;;;3.88;;
78416;SDS011;67715;46.170;6.140;2023-04-08T02:25:20;6.55;;;3.95;;
78416;SDS011;67715;46.170;6.140;2023-04-08T02:27:47;6.63;;;3.97;;
78416;SDS011;67715;46.170;6.140;2023-04-08T02:30:13;5.10;;;3.10;;
78416;SDS011;67715;46.170;6.140;2023-04-08T02:32:39;7.13;;;4.25;;
78416;SDS011;67715;46.170;6.140;2023-04-08T02:35:05;7.03;;;4.10;;
78416;SDS011;67715;46.170;6.140;2023-04-08T02:37:31;6.60;;;3.97;;
78416;SDS011;67715;46.170;6.140;2023-04-08T02:39:56;5.28;;;3.92;;
78416;SDS011;67715;46.170;6.140;2023-04-08T02:42:22;5.65;;;4.00;;
78416;SDS011;67715;46.170;6.140;2023-04-08T02:44:47;5.53;;;3.87;;
78416;SDS011;67715;46.170;6.140;2023-04-08T02:47:13;8.43;;;3.90;;
78416;SDS011;67715;46.170;6.140;2023-04-08T02:49:38;8.10;;;4.23;;
78416;SDS011;67715;46.170;6.140;2023-04-08T02:52:03;7.37;;;4.60;;
78416;SDS011;67715;46.170;6.140;2023-04-08T02:54:29;8.03;;;5.23;;
78416;SDS011;67715;46.170;6.140;2023-04-08T02:56:54;5.45;;;3.60;;
78416;SDS011;67715;46.170;6.140;2023-04-08T02:59:20;7.20;;;4.32;;
78416;SDS011;67715;46.170;6.140;2023-04-08T03:01:45;7.13;;;3.90;;
78416;SDS011;67715;46.170;6.140;2023-04-08T03:04:10;7.43;;;4.30;;
78416;SDS011;67715;46.170;6.140;2023-04-08T03:06:35;6.93;;;3.43;;
78416;SDS011;67715;46.170;6.140;2023-04-08T03:09:01;8.13;;;4.77;;
78416;SDS011;67715;46.170;6.140;2023-04-08T03:11:26;6.70;;;3.87;;
78416;SDS011;67715;46.170;6.140;2023-04-08T03:13:51;8.02;;;4.65;;
78416;SDS011;67715;46.170;6.140;2023-04-08T03:16:17;7.87;;;4.10;;
78416;SDS011;67715;46.170;6.140;2023-04-08T03:18:42;5.97;;;4.40;;
78416;SDS011;67715;46.170;6.140;2023-04-08T03:21:07;7.87;;;3.83;;
78416;SDS011;67715;46.170;6.140;2023-04-08T03:23:33;6.88;;;4.45;;
78416;SDS011;67715;46.170;6.140;2023-04-08T03:25:58;5.27;;;3.50;;
78416;SDS011;67715;46.170;6.140;2023-04-08T03:28:23;7.68;;;4.38;;
78416;SDS011;67715;46.170;6.140;2023-04-08T03:30:49;6.10;;;4.00;;
78416;SDS011;67715;46.170;6.140;2023-04-08T03:33:14;8.17;;;4.00;;
78416;SDS011;67715;46.170;6.140;2023-04-08T03:35:40;6.30;;;4.03;;
78416;SDS011;67715;46.170;6.140;2023-04-08T03:38:05;6.80;;;4.30;;
78416;SDS011;67715;46.170;6.140;2023-04-08T03:40:30;7.87;;;4.23;;
78416;SDS011;67715;46.170;6.140;2023-04-08T03:42:56;6.93;;;4.97;;
78416;SDS011;67715;46.170;6.140;2023-04-08T03:45:21;7.07;;;4.30;;
78416;SDS011;67715;46.170;6.140;2023-04-08T03:47:46;6.90;;;4.33;;
78416;SDS011;67715;46.170;6.140;2023-04-08T03:50:12;8.63;;;3.93;;
78416;SDS011;67715;46.170;6.140;2023-04-08T03:52:37;6.87;;;3.63;;
78416;SDS011;67715;46.170;6.140;2023-04-08T03:55:02;7.60;;;4.23;;
78416;SDS011;67715;46.170;6.140;2023-04-08T03:57:28;6.57;;;4.50;;
78416;SDS011;67715;46.170;6.140;2023-04-08T03:59:53;7.93;;;4.93;;
78416;SDS011;67715;46.170;6.140;2023-04-08T04:02:18;6.13;;;4.20;;
78416;SDS011;67715;46.170;6.140;2023-04-08T04:04:44;7.77;;;4.60;;
78416;SDS011;67715;46.170;6.140;2023-04-08T04:07:09;9.27;;;5.80;;
78416;SDS011;67715;46.170;6.140;2023-04-08T04:09:35;8.77;;;4.67;;
78416;SDS011;67715;46.170;6.140;2023-04-08T04:12:00;8.80;;;4.50;;
78416;SDS011;67715;46.170;6.140;2023-04-08T04:14:25;6.90;;;4.70;;
78416;SDS011;67715;46.170;6.140;2023-04-08T04:16:51;9.23;;;4.83;;
78416;SDS011;67715;46.170;6.140;2023-04-08T04:19:16;7.60;;;5.23;;
78416;SDS011;67715;46.170;6.140;2023-04-08T04:21:42;9.98;;;5.32;;
78416;SDS011;67715;46.170;6.140;2023-04-08T04:24:07;7.28;;;4.57;;
78416;SDS011;67715;46.170;6.140;2023-04-08T04:26:33;9.07;;;4.70;;
78416;SDS011;67715;46.170;6.140;2023-04-08T04:28:58;6.70;;;4.43;;
78416;SDS011;67715;46.170;6.140;2023-04-08T04:31:23;6.40;;;4.73;;
78416;SDS011;67715;46.170;6.140;2023-04-08T04:33:51;10.13;;;5.45;;
78416;SDS011;67715;46.170;6.140;2023-04-08T04:36:17;6.20;;;4.45;;
78416;SDS011;67715;46.170;6.140;2023-04-08T04:38:43;7.35;;;4.53;;
78416;SDS011;67715;46.170;6.140;2023-04-08T04:41:09;6.90;;;4.82;;
78416;SDS011;67715;46.170;6.140;2023-04-08T04:43:34;7.40;;;4.75;;
78416;SDS011;67715;46.170;6.140;2023-04-08T04:46:00;9.23;;;5.30;;
78416;SDS011;67715;46.170;6.140;2023-04-08T04:48:26;7.72;;;4.75;;
78416;SDS011;67715;46.170;6.140;2023-04-08T04:50:55;7.78;;;5.03;;
78416;SDS011;67715;46.170;6.140;2023-04-08T04:53:21;8.30;;;4.95;;
78416;SDS011;67715;46.170;6.140;2023-04-08T04:55:46;8.60;;;4.25;;
78416;SDS011;67715;46.170;6.140;2023-04-08T04:58:11;6.37;;;4.87;;
78416;SDS011;67715;46.170;6.140;2023-04-08T05:00:37;11.67;;;4.33;;
78416;SDS011;67715;46.170;6.140;2023-04-08T05:03:02;6.50;;;4.63;;
78416;SDS011;67715;46.170;6.140;2023-04-08T05:05:27;5.90;;;4.00;;
78416;SDS011;67715;46.170;6.140;2023-04-08T05:07:53;7.17;;;4.70;;
78416;SDS011;67715;46.170;6.140;2023-04-08T05:10:18;9.57;;;5.13;;
78416;SDS011;67715;46.170;6.140;2023-04-08T05:12:43;8.40;;;4.97;;
78416;SDS011;67715;46.170;6.140;2023-04-08T05:15:09;10.10;;;4.70;;
78416;SDS011;67715;46.170;6.140;2023-04-08T05:17:35;7.00;;;5.03;;
78416;SDS011;67715;46.170;6.140;2023-04-08T05:20:00;7.95;;;4.70;;
78416;SDS011;67715;46.170;6.140;2023-04-08T05:22:26;7.65;;;4.85;;
78416;SDS011;67715;46.170;6.140;2023-04-08T05:24:51;7.80;;;4.50;;
78416;SDS011;67715;46.170;6.140;2023-04-08T05:27:17;10.43;;;5.03;;
78416;SDS011;67715;46.170;6.140;2023-04-08T05:29:42;6.97;;;5.13;;
78416;SDS011;67715;46.170;6.140;2023-04-08T05:32:07;7.73;;;4.70;;
78416;SDS011;67715;46.170;6.140;2023-04-08T05:34:33;8.07;;;4.85;;
78416;SDS011;67715;46.170;6.140;2023-04-08T05:36:58;9.73;;;5.13;;
78416;SDS011;67715;46.170;6.140;2023-04-08T05:39:23;6.93;;;4.03;;
78416;SDS011;67715;46.170;6.140;2023-04-08T05:41:49;8.70;;;4.47;;
78416;SDS011;67715;46.170;6.140;2023-04-08T05:44:14;9.17;;;4.70;;
78416;SDS011;67715;46.170;6.140;2023-04-08T05:46:39;6.63;;;4.63;;
78416;SDS011;67715;46.170;6.140;2023-04-08T05:49:05;11.50;;;5.00;;
78416;SDS011;67715;46.170;6.140;2023-04-08T05:51:30;8.37;;;4.67;;
78416;SDS011;67715;46.170;6.140;2023-04-08T05:53:55;9.43;;;5.67;;
78416;SDS011;67715;46.170;6.140;2023-04-08T05:56:21;13.03;;;5.67;;
78416;SDS011;67715;46.170;6.140;2023-04-08T05:58:47;9.63;;;6.23;;
78416;SDS011;67715;46.170;6.140;2023-04-08T06:01:12;7.50;;;5.20;;
78416;SDS011;67715;46.170;6.140;2023-04-08T06:03:38;9.00;;;5.80;;
78416;SDS011;67715;46.170;6.140;2023-04-08T06:06:03;8.33;;;5.40;;
78416;SDS011;67715;46.170;6.140;2023-04-08T06:08:29;10.00;;;6.28;;
78416;SDS011;67715;46.170;6.140;2023-04-08T06:10:54;11.60;;;7.37;;
78416;SDS011;67715;46.170;6.140;2023-04-08T06:13:19;12.03;;;6.13;;
78416;SDS011;67715;46.170;6.140;2023-04-08T06:15:45;11.05;;;6.97;;
78416;SDS011;67715;46.170;6.140;2023-04-08T06:18:12;10.55;;;7.25;;
78416;SDS011;67715;46.170;6.140;2023-04-08T06:20:38;11.50;;;6.97;;
78416;SDS011;67715;46.170;6.140;2023-04-08T06:23:04;11.07;;;6.85;;
78416;SDS011;67715;46.170;6.140;2023-04-08T06:25:30;10.38;;;6.78;;
78416;SDS011;67715;46.170;6.140;2023-04-08T06:27:55;9.67;;;6.53;;
78416;SDS011;67715;46.170;6.140;2023-04-08T06:30:21;11.53;;;7.70;;
78416;SDS011;67715;46.170;6.140;2023-04-08T06:32:46;11.48;;;8.23;;
78416;SDS011;67715;46.170;6.140;2023-04-08T06:35:12;17.90;;;8.32;;
78416;SDS011;67715;46.170;6.140;2023-04-08T06:37:38;13.27;;;7.78;;
78416;SDS011;67715;46.170;6.140;2023-04-08T06:40:03;9.63;;;6.80;;
78416;SDS011;67715;46.170;6.140;2023-04-08T06:42:29;10.82;;;7.22;;
78416;SDS011;67715;46.170;6.140;2023-04-08T06:44:55;10.38;;;6.88;;
78416;SDS011;67715;46.170;6.140;2023-04-08T06:47:20;11.33;;;7.43;;
78416;SDS011;67715;46.170;6.140;2023-04-08T06:49:46;13.00;;;7.57;;
78416;SDS011;67715;46.170;6.140;2023-04-08T06:52:11;15.80;;;9.40;;
78416;SDS011;67715;46.170;6.140;2023-04-08T06:54:36;13.27;;;7.97;;
78416;SDS011;67715;46.170;6.140;2023-04-08T06:57:02;13.47;;;8.60;;
78416;SDS011;67715;46.170;6.140;2023-04-08T06:59:28;12.82;;;7.63;;
78416;SDS011;67715;46.170;6.140;2023-04-08T07:01:53;13.43;;;8.80;;
78416;SDS011;67715;46.170;6.140;2023-04-08T07:04:19;14.67;;;8.17;;
78416;SDS011;67715;46.170;6.140;2023-04-08T07:06:44;17.85;;;9.40;;
78416;SDS011;67715;46.170;6.140;2023-04-08T07:09:10;14.00;;;8.60;;
78416;SDS011;67715;46.170;6.140;2023-04-08T07:11:36;12.50;;;8.75;;
78416;SDS011;67715;46.170;6.140;2023-04-08T07:14:01;16.43;;;9.07;;
78416;SDS011;67715;46.170;6.140;2023-04-08T07:16:26;10.65;;;8.02;;
78416;SDS011;67715;46.170;6.140;2023-04-08T07:18:52;12.47;;;8.33;;
78416;SDS011;67715;46.170;6.140;2023-04-08T07:21:17;7.35;;;6.10;;
78416;SDS011;67715;46.170;6.140;2023-04-08T07:23:42;9.40;;;6.50;;
78416;SDS011;67715;46.170;6.140;2023-04-08T07:26:08;11.17;;;6.13;;
78416;SDS011;67715;46.170;6.140;2023-04-08T07:28:33;8.53;;;6.30;;
78416;SDS011;67715;46.170;6.140;2023-04-08T07:31:12;9.30;;;5.37;;
78416;SDS011;67715;46.170;6.140;2023-04-08T07:33:41;7.95;;;5.30;;
78416;SDS011;67715;46.170;6.140;2023-04-08T07:36:10;8.75;;;5.13;;
78416;SDS011;67715;46.170;6.140;2023-04-08T07:38:36;7.28;;;5.20;;
78416;SDS011;67715;46.170;6.140;2023-04-08T07:41:02;7.07;;;5.20;;
78416;SDS011;67715;46.170;6.140;2023-04-08T07:43:27;8.77;;;5.30;;
78416;SDS011;67715;46.170;6.140;2023-04-08T07:45:53;9.13;;;5.97;;
78416;SDS011;67715;46.170;6.140;2023-04-08T07:48:18;7.83;;;5.57;;
78416;SDS011;67715;46.170;6.140;2023-04-08T07:50:43;9.93;;;5.53;;
78416;SDS011;67715;46.170;6.140;2023-04-08T07:53:10;7.57;;;5.20;;
78416;SDS011;67715;46.170;6.140;2023-04-08T07:55:35;7.65;;;4.88;;
78416;SDS011;67715;46.170;6.140;2023-04-08T07:58:01;6.05;;;4.45;;
78416;SDS011;67715;46.170;6.140;2023-04-08T08:00:26;6.70;;;4.40;;
78416;SDS011;67715;46.170;6.140;2023-04-08T08:02:54;5.43;;;4.13;;
78416;SDS011;67715;46.170;6.140;2023-04-08T08:05:19;6.55;;;4.93;;
78416;SDS011;67715;46.170;6.140;2023-04-08T08:07:45;6.25;;;4.40;;
78416;SDS011;67715;46.170;6.140;2023-04-08T08:10:10;8.40;;;4.73;;
78416;SDS011;67715;46.170;6.140;2023-04-08T08:12:35;6.40;;;4.47;;
78416;SDS011;67715;46.170;6.140;2023-04-08T08:15:01;7.22;;;4.43;;
78416;SDS011;67715;46.170;6.140;2023-04-08T08:17:27;5.70;;;3.92;;
78416;SDS011;67715;46.170;6.140;2023-04-08T08:19:54;6.50;;;4.15;;
78416;SDS011;67715;46.170;6.140;2023-04-08T08:22:20;5.82;;;3.80;;
78416;SDS011;67715;46.170;6.140;2023-04-08T08:24:45;6.10;;;4.13;;
78416;SDS011;67715;46.170;6.140;2023-04-08T08:27:11;5.97;;;3.67;;
78416;SDS011;67715;46.170;6.140;2023-04-08T08:29:36;5.70;;;2.97;;
78416;SDS011;67715;46.170;6.140;2023-04-08T08:32:02;4.28;;;2.95;;
78416;SDS011;67715;46.170;6.140;2023-04-08T08:34:30;3.67;;;3.00;;
78416;SDS011;67715;46.170;6.140;2023-04-08T08:36:55;4.88;;;3.13;;
78416;SDS011;67715;46.170;6.140;2023-04-08T08:39:21;3.50;;;2.60;;
78416;SDS011;67715;46.170;6.140;2023-04-08T08:41:46;4.50;;;3.08;;
78416;SDS011;67715;46.170;6.140;2023-04-08T08:44:11;4.10;;;3.23;;
78416;SDS011;67715;46.170;6.140;2023-04-08T08:46:40;4.55;;;3.25;;
78416;SDS011;67715;46.170;6.140;2023-04-08T08:49:11;5.28;;;3.00;;
78416;SDS011;67715;46.170;6.140;2023-04-08T08:51:36;5.13;;;3.45;;
78416;SDS011;67715;46.170;6.140;2023-04-08T08:54:04;3.92;;;3.15;;
78416;SDS011;67715;46.170;6.140;2023-04-08T08:56:29;4.05;;;3.42;;
78416;SDS011;67715;46.170;6.140;2023-04-08T08:58:54;3.65;;;3.15;;
78416;SDS011;67715;46.170;6.140;2023-04-08T09:01:38;5.67;;;4.30;;
78416;SDS011;67715;46.170;6.140;2023-04-08T09:04:14;5.13;;;3.53;;
78416;SDS011;67715;46.170;6.140;2023-04-08T09:06:44;3.40;;;3.05;;
78416;SDS011;67715;46.170;6.140;2023-04-08T09:09:11;4.10;;;3.20;;
78416;SDS011;67715;46.170;6.140;2023-04-08T09:11:37;3.70;;;3.00;;
78416;SDS011;67715;46.170;6.140;2023-04-08T09:14:03;4.22;;;2.65;;
78416;SDS011;67715;46.170;6.140;2023-04-08T09:16:30;5.03;;;2.80;;
78416;SDS011;67715;46.170;6.140;2023-04-08T09:18:57;4.30;;;2.63;;
78416;SDS011;67715;46.170;6.140;2023-04-08T09:21:32;2.47;;;2.28;;
78416;SDS011;67715;46.170;6.140;2023-04-08T09:23:59;4.47;;;2.58;;
78416;SDS011;67715;46.170;6.140;2023-04-08T09:26:24;4.82;;;3.10;;
78416;SDS011;67715;46.170;6.140;2023-04-08T09:31:33;3.42;;;2.85;;
78416;SDS011;67715;46.170;6.140;2023-04-08T09:34:08;3.25;;;2.53;;
78416;SDS011;67715;46.170;6.140;2023-04-08T09:36:36;3.40;;;2.85;;
78416;SDS011;67715;46.170;6.140;2023-04-08T09:39:02;4.85;;;3.00;;
78416;SDS011;67715;46.170;6.140;2023-04-08T09:41:27;4.03;;;2.75;;
78416;SDS011;67715;46.170;6.140;2023-04-08T09:43:53;3.83;;;3.03;;
78416;SDS011;67715;46.170;6.140;2023-04-08T09:47:07;4.63;;;2.78;;
78416;SDS011;67715;46.170;6.140;2023-04-08T09:49:12;6.00;;;3.20;;
78416;SDS011;67715;46.170;6.140;2023-04-08T09:54:50;3.88;;;2.65;;
78416;SDS011;67715;46.170;6.140;2023-04-08T09:57:24;3.85;;;3.00;;
78416;SDS011;67715;46.170;6.140;2023-04-08T10:00:09;3.47;;;2.75;;
78416;SDS011;67715;46.170;6.140;2023-04-08T10:02:58;3.85;;;2.50;;
78416;SDS011;67715;46.170;6.140;2023-04-08T10:07:56;4.20;;;2.77;;
78416;SDS011;67715;46.170;6.140;2023-04-08T10:10:24;3.22;;;2.47;;
78416;SDS011;67715;46.170;6.140;2023-04-08T10:12:50;2.78;;;2.45;;
78416;SDS011;67715;46.170;6.140;2023-04-08T10:17:51;3.88;;;2.60;;
78416;SDS011;67715;46.170;6.140;2023-04-08T10:22:58;3.00;;;2.50;;
78416;SDS011;67715;46.170;6.140;2023-04-08T10:27:50;2.70;;;2.37;;
78416;SDS011;67715;46.170;6.140;2023-04-08T10:31:00;3.03;;;2.50;;
78416;SDS011;67715;46.170;6.140;2023-04-08T10:35:59;3.60;;;2.47;;
78416;SDS011;67715;46.170;6.140;2023-04-08T10:38:38;3.72;;;2.20;;
78416;SDS011;67715;46.170;6.140;2023-04-08T10:41:06;3.00;;;2.30;;
78416;SDS011;67715;46.170;6.140;2023-04-08T10:43:32;3.95;;;2.55;;
78416;SDS011;67715;46.170;6.140;2023-04-08T10:45:57;3.60;;;2.30;;
78416;SDS011;67715;46.170;6.140;2023-04-08T10:48:23;3.40;;;2.47;;
78416;SDS011;67715;46.170;6.140;2023-04-08T10:50:52;2.70;;;2.28;;
78416;SDS011;67715;46.170;6.140;2023-04-08T10:53:23;2.97;;;2.60;;
78416;SDS011;67715;46.170;6.140;2023-04-08T10:55:50;2.53;;;2.08;;
78416;SDS011;67715;46.170;6.140;2023-04-08T10:58:16;2.67;;;2.00;;
78416;SDS011;67715;46.170;6.140;2023-04-08T11:00:42;2.80;;;1.90;;
78416;SDS011;67715;46.170;6.140;2023-04-08T11:03:08;3.30;;;2.27;;
78416;SDS011;67715;46.170;6.140;2023-04-08T11:05:34;2.97;;;2.05;;
78416;SDS011;67715;46.170;6.140;2023-04-08T11:08:01;4.05;;;2.10;;
78416;SDS011;67715;46.170;6.140;2023-04-08T11:10:26;3.67;;;2.33;;
78416;SDS011;67715;46.170;6.140;2023-04-08T11:12:53;3.95;;;2.20;;
78416;SDS011;67715;46.170;6.140;2023-04-08T11:15:18;3.50;;;2.47;;
78416;SDS011;67715;46.170;6.140;2023-04-08T11:17:44;2.70;;;2.03;;
78416;SDS011;67715;46.170;6.140;2023-04-08T11:20:11;4.22;;;2.10;;
78416;SDS011;67715;46.170;6.140;2023-04-08T11:22:38;3.08;;;2.38;;
78416;SDS011;67715;46.170;6.140;2023-04-08T11:25:03;6.50;;;2.13;;
78416;SDS011;67715;46.170;6.140;2023-04-08T11:27:32;2.70;;;1.90;;
78416;SDS011;67715;46.170;6.140;2023-04-08T11:29:57;4.32;;;2.33;;
78416;SDS011;67715;46.170;6.140;2023-04-08T11:32:23;2.72;;;2.17;;
78416;SDS011;67715;46.170;6.140;2023-04-08T11:34:48;2.03;;;1.75;;
78416;SDS011;67715;46.170;6.140;2023-04-08T11:37:14;3.13;;;2.20;;
78416;SDS011;67715;46.170;6.140;2023-04-08T11:39:43;3.90;;;2.30;;
78416;SDS011;67715;46.170;6.140;2023-04-08T11:42:08;2.85;;;2.40;;
78416;SDS011;67715;46.170;6.140;2023-04-08T11:44:34;3.58;;;1.90;;
78416;SDS011;67715;46.170;6.140;2023-04-08T11:47:00;3.27;;;2.10;;
78416;SDS011;67715;46.170;6.140;2023-04-08T11:49:26;2.55;;;2.10;;
78416;SDS011;67715;46.170;6.140;2023-04-08T11:51:56;3.08;;;2.20;;
78416;SDS011;67715;46.170;6.140;2023-04-08T11:54:30;3.15;;;2.25;;
78416;SDS011;67715;46.170;6.140;2023-04-08T11:56:56;3.03;;;2.25;;
78416;SDS011;67715;46.170;6.140;2023-04-08T11:59:23;5.03;;;2.35;;
78416;SDS011;67715;46.170;6.140;2023-04-08T12:01:50;4.80;;;2.00;;
78416;SDS011;67715;46.170;6.140;2023-04-08T12:04:16;2.97;;;2.00;;
78416;SDS011;67715;46.170;6.140;2023-04-08T12:06:41;5.13;;;2.17;;
78416;SDS011;67715;46.170;6.140;2023-04-08T12:09:10;2.92;;;1.77;;
78416;SDS011;67715;46.170;6.140;2023-04-08T12:11:36;3.40;;;1.90;;
78416;SDS011;67715;46.170;6.140;2023-04-08T12:14:01;3.10;;;2.03;;
78416;SDS011;67715;46.170;6.140;2023-04-08T12:16:27;3.03;;;2.03;;
78416;SDS011;67715;46.170;6.140;2023-04-08T12:18:52;2.85;;;1.63;;
78416;SDS011;67715;46.170;6.140;2023-04-08T12:21:17;3.80;;;1.90;;
78416;SDS011;67715;46.170;6.140;2023-04-08T12:23:43;2.73;;;2.00;;
78416;SDS011;67715;46.170;6.140;2023-04-08T12:26:08;1.93;;;1.70;;
78416;SDS011;67715;46.170;6.140;2023-04-08T12:28:34;3.58;;;1.83;;
78416;SDS011;67715;46.170;6.140;2023-04-08T12:31:00;2.72;;;1.92;;
78416;SDS011;67715;46.170;6.140;2023-04-08T12:33:25;2.20;;;1.80;;
78416;SDS011;67715;46.170;6.140;2023-04-08T12:35:51;2.70;;;1.85;;
78416;SDS011;67715;46.170;6.140;2023-04-08T12:38:16;2.72;;;1.83;;
78416;SDS011;67715;46.170;6.140;2023-04-08T12:40:42;1.83;;;1.50;;
78416;SDS011;67715;46.170;6.140;2023-04-08T12:43:07;2.78;;;1.65;;
78416;SDS011;67715;46.170;6.140;2023-04-08T12:45:33;2.97;;;1.75;;
78416;SDS011;67715;46.170;6.140;2023-04-08T12:47:58;2.33;;;1.47;;
78416;SDS011;67715;46.170;6.140;2023-04-08T12:50:23;2.10;;;1.40;;
78416;SDS011;67715;46.170;6.140;2023-04-08T12:52:48;2.50;;;2.00;;
78416;SDS011;67715;46.170;6.140;2023-04-08T12:55:14;3.33;;;1.73;;
78416;SDS011;67715;46.170;6.140;2023-04-08T12:57:40;2.00;;;1.65;;
78416;SDS011;67715;46.170;6.140;2023-04-08T13:00:05;1.93;;;1.60;;
78416;SDS011;67715;46.170;6.140;2023-04-08T13:02:31;2.65;;;2.03;;
78416;SDS011;67715;46.170;6.140;2023-04-08T13:04:56;1.97;;;1.70;;
78416;SDS011;67715;46.170;6.140;2023-04-08T13:07:22;2.27;;;1.50;;
78416;SDS011;67715;46.170;6.140;2023-04-08T13:09:47;1.60;;;1.23;;
78416;SDS011;67715;46.170;6.140;2023-04-08T13:12:13;2.73;;;1.60;;
78416;SDS011;67715;46.170;6.140;2023-04-08T13:14:38;2.30;;;1.20;;
78416;SDS011;67715;46.170;6.140;2023-04-08T13:17:03;2.03;;;1.47;;
78416;SDS011;67715;46.170;6.140;2023-04-08T13:19:29;2.53;;;1.55;;
78416;SDS011;67715;46.170;6.140;2023-04-08T13:21:54;1.95;;;1.50;;
78416;SDS011;67715;46.170;6.140;2023-04-08T13:24:20;1.67;;;1.20;;
78416;SDS011;67715;46.170;6.140;2023-04-08T13:26:45;2.50;;;1.50;;
78416;SDS011;67715;46.170;6.140;2023-04-08T13:29:10;1.63;;;1.10;;
78416;SDS011;67715;46.170;6.140;2023-04-08T13:31:36;1.50;;;1.20;;
78416;SDS011;67715;46.170;6.140;2023-04-08T13:34:01;1.90;;;1.37;;
78416;SDS011;67715;46.170;6.140;2023-04-08T13:36:26;1.23;;;1.10;;
78416;SDS011;67715;46.170;6.140;2023-04-08T13:38:55;2.30;;;1.30;;
78416;SDS011;67715;46.170;6.140;2023-04-08T13:41:20;2.58;;;1.42;;
78416;SDS011;67715;46.170;6.140;2023-04-08T13:43:46;1.70;;;1.23;;
78416;SDS011;67715;46.170;6.140;2023-04-08T13:46:11;1.67;;;1.15;;
78416;SDS011;67715;46.170;6.140;2023-04-08T13:48:37;2.00;;;0.90;;
78416;SDS011;67715;46.170;6.140;2023-04-08T13:51:02;2.97;;;1.13;;
78416;SDS011;67715;46.170;6.140;2023-04-08T13:53:27;1.30;;;1.00;;
78416;SDS011;67715;46.170;6.140;2023-04-08T13:55:53;1.98;;;1.40;;
78416;SDS011;67715;46.170;6.140;2023-04-08T13:58:19;1.27;;;1.00;;
78416;SDS011;67715;46.170;6.140;2023-04-08T14:00:45;1.50;;;0.95;;
78416;SDS011;67715;46.170;6.140;2023-04-08T14:03:11;1.60;;;1.17;;
78416;SDS011;67715;46.170;6.140;2023-04-08T14:05:36;2.03;;;1.23;;
78416;SDS011;67715;46.170;6.140;2023-04-08T14:08:02;1.37;;;1.07;;
78416;SDS011;67715;46.170;6.140;2023-04-08T14:10:27;3.27;;;1.10;;
78416;SDS011;67715;46.170;6.140;2023-04-08T14:12:52;1.57;;;1.00;;
78416;SDS011;67715;46.170;6.140;2023-04-08T14:15:18;1.90;;;1.10;;
78416;SDS011;67715;46.170;6.140;2023-04-08T14:17:43;1.03;;;0.90;;
78416;SDS011;67715;46.170;6.140;2023-04-08T14:20:09;1.13;;;0.90;;
78416;SDS011;67715;46.170;6.140;2023-04-08T14:22:34;1.25;;;0.80;;
78416;SDS011;67715;46.170;6.140;2023-04-08T14:25:00;0.63;;;0.60;;
78416;SDS011;67715;46.170;6.140;2023-04-08T14:27:25;0.60;;;0.60;;
78416;SDS011;67715;46.170;6.140;2023-04-08T14:29:50;1.63;;;0.67;;
78416;SDS011;67715;46.170;6.140;2023-04-08T14:32:15;1.43;;;0.70;;
78416;SDS011;67715;46.170;6.140;2023-04-08T14:34:41;1.07;;;0.80;;
78416;SDS011;67715;46.170;6.140;2023-04-08T14:37:06;2.30;;;1.13;;
78416;SDS011;67715;46.170;6.140;2023-04-08T14:39:31;0.80;;;0.60;;
78416;SDS011;67715;46.170;6.140;2023-04-08T14:41:57;1.90;;;0.70;;
78416;SDS011;67715;46.170;6.140;2023-04-08T14:44:22;1.50;;;0.60;;
78416;SDS011;67715;46.170;6.140;2023-04-08T14:46:47;1.33;;;0.90;;
78416;SDS011;67715;46.170;6.140;2023-04-08T14:49:13;1.20;;;0.67;;
78416;SDS011;67715;46.170;6.140;2023-04-08T14:51:38;1.27;;;0.80;;
78416;SDS011;67715;46.170;6.140;2023-04-08T14:54:03;1.20;;;0.90;;
78416;SDS011;67715;46.170;6.140;2023-04-08T14:56:29;1.35;;;0.90;;
78416;SDS011;67715;46.170;6.140;2023-04-08T14:58:55;1.88;;;1.00;;
78416;SDS011;67715;46.170;6.140;2023-04-08T15:01:20;1.57;;;1.10;;
78416;SDS011;67715;46.170;6.140;2023-04-08T15:03:46;1.50;;;0.97;;
78416;SDS011;67715;46.170;6.140;2023-04-08T15:06:11;1.70;;;1.00;;